sensor_id;sensor_type;location;lat;lon;timestamp;P1;durP1;ratioP1;P2;durP2;ratioP2
22764;SDS011;11549;50.852;3.816;2023-07-31T00:01:27;18.38;;;7.68;;
22764;SDS011;11549;50.852;3.816;2023-07-31T00:03:55;18.98;;;6.45;;
22764;SDS011;11549;50.852;3.816;2023-07-31T00:06:24;23.38;;;7.22;;
22764;SDS011;11549;50.852;3.816;2023-07-31T00:08:53;21.00;;;6.82;;
22764;SDS011;11549;50.852;3.816;2023-07-31T00:11:22;17.85;;;6.15;;
22764;SDS011;11549;50.852;3.816;2023-07-31T00:13:52;22.38;;;7.25;;
22764;SDS011;11549;50.852;3.816;2023-07-31T00:16:21;23.35;;;7.32;;
22764;SDS011;11549;50.852;3.816;2023-07-31T00:18:49;17.65;;;6.65;;
22764;SDS011;11549;50.852;3.816;2023-07-31T00:21:17;20.00;;;6.50;;
22764;SDS011;11549;50.852;3.816;2023-07-31T00:23:46;20.75;;;6.78;;
22764;SDS011;11549;50.852;3.816;2023-07-31T00:26:14;22.27;;;6.85;;
22764;SDS011;11549;50.852;3.816;2023-07-31T00:28:44;21.48;;;6.78;;
22764;SDS011;11549;50.852;3.816;2023-07-31T00:31:12;23.88;;;7.40;;
22764;SDS011;11549;50.852;3.816;2023-07-31T00:33:41;23.95;;;7.30;;
22764;SDS011;11549;50.852;3.816;2023-07-31T00:36:09;24.35;;;7.43;;
22764;SDS011;11549;50.852;3.816;2023-07-31T00:38:38;21.27;;;6.55;;
22764;SDS011;11549;50.852;3.816;2023-07-31T00:41:06;20.08;;;6.95;;
22764;SDS011;11549;50.852;3.816;2023-07-31T00:43:34;22.10;;;6.63;;
22764;SDS011;11549;50.852;3.816;2023-07-31T00:46:04;16.45;;;6.35;;
22764;SDS011;11549;50.852;3.816;2023-07-31T00:48:33;23.33;;;7.20;;
22764;SDS011;11549;50.852;3.816;2023-07-31T00:51:03;19.83;;;6.88;;
22764;SDS011;11549;50.852;3.816;2023-07-31T00:53:31;16.73;;;6.28;;
22764;SDS011;11549;50.852;3.816;2023-07-31T00:55:59;19.30;;;6.43;;
22764;SDS011;11549;50.852;3.816;2023-07-31T00:58:28;19.90;;;6.10;;
22764;SDS011;11549;50.852;3.816;2023-07-31T01:00:56;18.10;;;6.45;;
22764;SDS011;11549;50.852;3.816;2023-07-31T01:03:26;19.88;;;6.45;;
22764;SDS011;11549;50.852;3.816;2023-07-31T01:05:57;22.20;;;6.85;;
22764;SDS011;11549;50.852;3.816;2023-07-31T01:08:38;15.57;;;5.88;;
22764;SDS011;11549;50.852;3.816;2023-07-31T01:11:11;18.45;;;6.65;;
22764;SDS011;11549;50.852;3.816;2023-07-31T01:13:43;18.73;;;6.53;;
22764;SDS011;11549;50.852;3.816;2023-07-31T01:16:12;21.35;;;6.53;;
22764;SDS011;11549;50.852;3.816;2023-07-31T01:18:42;19.20;;;6.13;;
22764;SDS011;11549;50.852;3.816;2023-07-31T01:21:17;14.80;;;5.85;;
22764;SDS011;11549;50.852;3.816;2023-07-31T01:24:01;16.55;;;6.53;;
22764;SDS011;11549;50.852;3.816;2023-07-31T01:26:49;21.48;;;6.10;;
22764;SDS011;11549;50.852;3.816;2023-07-31T01:29:24;19.38;;;6.32;;
22764;SDS011;11549;50.852;3.816;2023-07-31T01:31:59;17.65;;;5.53;;
22764;SDS011;11549;50.852;3.816;2023-07-31T01:34:29;17.65;;;6.55;;
22764;SDS011;11549;50.852;3.816;2023-07-31T01:36:59;19.27;;;7.05;;
22764;SDS011;11549;50.852;3.816;2023-07-31T01:39:28;18.83;;;6.32;;
22764;SDS011;11549;50.852;3.816;2023-07-31T01:41:58;19.80;;;6.75;;
22764;SDS011;11549;50.852;3.816;2023-07-31T01:44:26;16.52;;;5.68;;
22764;SDS011;11549;50.852;3.816;2023-07-31T01:46:54;18.00;;;6.30;;
22764;SDS011;11549;50.852;3.816;2023-07-31T01:49:25;18.38;;;6.10;;
22764;SDS011;11549;50.852;3.816;2023-07-31T01:51:54;21.25;;;6.50;;
22764;SDS011;11549;50.852;3.816;2023-07-31T01:54:22;17.33;;;5.75;;
22764;SDS011;11549;50.852;3.816;2023-07-31T01:56:50;18.90;;;6.68;;
22764;SDS011;11549;50.852;3.816;2023-07-31T01:59:20;18.08;;;6.45;;
22764;SDS011;11549;50.852;3.816;2023-07-31T02:01:48;17.33;;;6.47;;
22764;SDS011;11549;50.852;3.816;2023-07-31T02:04:20;18.83;;;6.07;;
22764;SDS011;11549;50.852;3.816;2023-07-31T02:06:48;15.00;;;6.35;;
22764;SDS011;11549;50.852;3.816;2023-07-31T02:09:16;16.23;;;6.35;;
22764;SDS011;11549;50.852;3.816;2023-07-31T02:11:45;17.00;;;6.35;;
22764;SDS011;11549;50.852;3.816;2023-07-31T02:14:13;21.35;;;6.85;;
22764;SDS011;11549;50.852;3.816;2023-07-31T02:16:43;19.23;;;6.68;;
22764;SDS011;11549;50.852;3.816;2023-07-31T02:19:12;14.88;;;7.28;;
22764;SDS011;11549;50.852;3.816;2023-07-31T02:21:40;15.02;;;6.78;;
22764;SDS011;11549;50.852;3.816;2023-07-31T02:24:10;19.13;;;7.35;;
22764;SDS011;11549;50.852;3.816;2023-07-31T02:26:38;16.70;;;6.95;;
22764;SDS011;11549;50.852;3.816;2023-07-31T02:29:08;17.98;;;7.40;;
22764;SDS011;11549;50.852;3.816;2023-07-31T02:31:36;19.10;;;8.02;;
22764;SDS011;11549;50.852;3.816;2023-07-31T02:34:06;19.30;;;7.50;;
22764;SDS011;11549;50.852;3.816;2023-07-31T02:36:35;16.77;;;7.93;;
22764;SDS011;11549;50.852;3.816;2023-07-31T02:39:04;20.35;;;7.70;;
22764;SDS011;11549;50.852;3.816;2023-07-31T02:41:32;16.95;;;7.68;;
22764;SDS011;11549;50.852;3.816;2023-07-31T02:44:00;17.10;;;7.47;;
22764;SDS011;11549;50.852;3.816;2023-07-31T02:46:29;15.75;;;7.13;;
22764;SDS011;11549;50.852;3.816;2023-07-31T02:48:58;17.77;;;7.80;;
22764;SDS011;11549;50.852;3.816;2023-07-31T02:51:28;14.85;;;7.60;;
22764;SDS011;11549;50.852;3.816;2023-07-31T02:53:56;14.55;;;6.97;;
22764;SDS011;11549;50.852;3.816;2023-07-31T02:56:25;16.67;;;7.03;;
22764;SDS011;11549;50.852;3.816;2023-07-31T02:58:53;13.32;;;6.68;;
22764;SDS011;11549;50.852;3.816;2023-07-31T03:01:21;16.52;;;7.68;;
22764;SDS011;11549;50.852;3.816;2023-07-31T03:03:50;14.63;;;7.90;;
22764;SDS011;11549;50.852;3.816;2023-07-31T03:06:19;14.38;;;7.78;;
22764;SDS011;11549;50.852;3.816;2023-07-31T03:08:48;13.50;;;7.40;;
22764;SDS011;11549;50.852;3.816;2023-07-31T03:11:17;15.65;;;6.88;;
22764;SDS011;11549;50.852;3.816;2023-07-31T03:13:45;12.32;;;7.10;;
22764;SDS011;11549;50.852;3.816;2023-07-31T03:16:14;17.10;;;6.93;;
22764;SDS011;11549;50.852;3.816;2023-07-31T03:18:42;13.48;;;6.28;;
22764;SDS011;11549;50.852;3.816;2023-07-31T03:21:10;16.83;;;6.97;;
22764;SDS011;11549;50.852;3.816;2023-07-31T03:23:39;14.50;;;7.00;;
22764;SDS011;11549;50.852;3.816;2023-07-31T03:26:11;15.63;;;6.65;;
22764;SDS011;11549;50.852;3.816;2023-07-31T03:28:40;16.10;;;6.93;;
22764;SDS011;11549;50.852;3.816;2023-07-31T03:31:08;15.23;;;6.70;;
22764;SDS011;11549;50.852;3.816;2023-07-31T03:33:38;14.48;;;6.43;;
22764;SDS011;11549;50.852;3.816;2023-07-31T03:36:06;13.35;;;6.18;;
22764;SDS011;11549;50.852;3.816;2023-07-31T03:38:35;14.05;;;5.90;;
22764;SDS011;11549;50.852;3.816;2023-07-31T03:41:03;14.32;;;6.25;;
22764;SDS011;11549;50.852;3.816;2023-07-31T03:43:34;10.90;;;6.00;;
22764;SDS011;11549;50.852;3.816;2023-07-31T03:46:02;11.40;;;6.25;;
22764;SDS011;11549;50.852;3.816;2023-07-31T03:48:31;10.43;;;6.45;;
22764;SDS011;11549;50.852;3.816;2023-07-31T03:50:59;12.57;;;7.25;;
22764;SDS011;11549;50.852;3.816;2023-07-31T03:53:28;10.88;;;7.68;;
22764;SDS011;11549;50.852;3.816;2023-07-31T03:55:56;12.13;;;7.90;;
22764;SDS011;11549;50.852;3.816;2023-07-31T03:58:25;14.07;;;7.03;;
22764;SDS011;11549;50.852;3.816;2023-07-31T04:00:54;12.05;;;7.30;;
22764;SDS011;11549;50.852;3.816;2023-07-31T04:03:23;11.85;;;7.50;;
22764;SDS011;11549;50.852;3.816;2023-07-31T04:05:53;12.68;;;6.88;;
22764;SDS011;11549;50.852;3.816;2023-07-31T04:08:22;11.73;;;6.55;;
22764;SDS011;11549;50.852;3.816;2023-07-31T04:10:51;13.60;;;7.55;;
22764;SDS011;11549;50.852;3.816;2023-07-31T04:13:19;11.85;;;7.38;;
22764;SDS011;11549;50.852;3.816;2023-07-31T04:15:49;12.73;;;7.57;;
22764;SDS011;11549;50.852;3.816;2023-07-31T04:18:19;13.70;;;7.47;;
22764;SDS011;11549;50.852;3.816;2023-07-31T04:20:48;12.05;;;6.75;;
22764;SDS011;11549;50.852;3.816;2023-07-31T04:23:16;13.07;;;7.25;;
22764;SDS011;11549;50.852;3.816;2023-07-31T04:25:44;11.50;;;7.03;;
22764;SDS011;11549;50.852;3.816;2023-07-31T04:28:13;13.73;;;7.03;;
22764;SDS011;11549;50.852;3.816;2023-07-31T04:30:41;13.75;;;7.50;;
22764;SDS011;11549;50.852;3.816;2023-07-31T04:33:10;13.88;;;7.40;;
22764;SDS011;11549;50.852;3.816;2023-07-31T04:35:40;12.18;;;7.47;;
22764;SDS011;11549;50.852;3.816;2023-07-31T04:38:08;15.48;;;7.80;;
22764;SDS011;11549;50.852;3.816;2023-07-31T04:40:36;15.07;;;7.63;;
22764;SDS011;11549;50.852;3.816;2023-07-31T04:43:04;13.43;;;7.53;;
22764;SDS011;11549;50.852;3.816;2023-07-31T04:45:33;13.13;;;7.35;;
22764;SDS011;11549;50.852;3.816;2023-07-31T04:48:01;13.05;;;7.78;;
22764;SDS011;11549;50.852;3.816;2023-07-31T04:50:30;12.13;;;7.65;;
22764;SDS011;11549;50.852;3.816;2023-07-31T04:53:00;13.65;;;8.00;;
22764;SDS011;11549;50.852;3.816;2023-07-31T04:55:28;14.57;;;7.93;;
22764;SDS011;11549;50.852;3.816;2023-07-31T04:57:57;14.13;;;7.88;;
22764;SDS011;11549;50.852;3.816;2023-07-31T05:00:26;13.38;;;8.50;;
22764;SDS011;11549;50.852;3.816;2023-07-31T05:02:54;17.70;;;8.68;;
22764;SDS011;11549;50.852;3.816;2023-07-31T05:05:23;13.63;;;8.57;;
22764;SDS011;11549;50.852;3.816;2023-07-31T05:07:51;16.27;;;8.30;;
22764;SDS011;11549;50.852;3.816;2023-07-31T05:10:21;14.35;;;8.77;;
22764;SDS011;11549;50.852;3.816;2023-07-31T05:12:49;15.88;;;8.93;;
22764;SDS011;11549;50.852;3.816;2023-07-31T05:15:18;15.63;;;8.50;;
22764;SDS011;11549;50.852;3.816;2023-07-31T05:17:46;14.23;;;7.75;;
22764;SDS011;11549;50.852;3.816;2023-07-31T05:20:14;14.70;;;7.60;;
22764;SDS011;11549;50.852;3.816;2023-07-31T05:22:43;13.55;;;7.43;;
22764;SDS011;11549;50.852;3.816;2023-07-31T05:25:11;12.55;;;6.90;;
22764;SDS011;11549;50.852;3.816;2023-07-31T05:27:41;13.10;;;6.93;;
22764;SDS011;11549;50.852;3.816;2023-07-31T05:30:09;11.18;;;6.15;;
22764;SDS011;11549;50.852;3.816;2023-07-31T05:32:38;13.50;;;6.97;;
22764;SDS011;11549;50.852;3.816;2023-07-31T05:35:07;12.93;;;6.38;;
22764;SDS011;11549;50.852;3.816;2023-07-31T05:37:35;12.18;;;6.10;;
22764;SDS011;11549;50.852;3.816;2023-07-31T05:40:04;11.90;;;6.70;;
22764;SDS011;11549;50.852;3.816;2023-07-31T05:42:33;15.15;;;6.30;;
22764;SDS011;11549;50.852;3.816;2023-07-31T05:45:06;12.65;;;6.25;;
22764;SDS011;11549;50.852;3.816;2023-07-31T05:47:35;12.80;;;5.95;;
22764;SDS011;11549;50.852;3.816;2023-07-31T05:50:03;12.35;;;6.07;;
22764;SDS011;11549;50.852;3.816;2023-07-31T05:52:32;12.35;;;5.45;;
22764;SDS011;11549;50.852;3.816;2023-07-31T05:55:00;14.15;;;5.85;;
22764;SDS011;11549;50.852;3.816;2023-07-31T05:57:29;13.00;;;6.38;;
22764;SDS011;11549;50.852;3.816;2023-07-31T05:59:58;15.93;;;6.07;;
22764;SDS011;11549;50.852;3.816;2023-07-31T06:02:28;9.93;;;5.38;;
22764;SDS011;11549;50.852;3.816;2023-07-31T06:04:59;10.83;;;6.17;;
22764;SDS011;11549;50.852;3.816;2023-07-31T06:07:28;10.80;;;5.93;;
22764;SDS011;11549;50.852;3.816;2023-07-31T06:09:56;11.60;;;5.53;;
22764;SDS011;11549;50.852;3.816;2023-07-31T06:12:29;12.88;;;5.97;;
22764;SDS011;11549;50.852;3.816;2023-07-31T06:14:58;9.25;;;5.40;;
22764;SDS011;11549;50.852;3.816;2023-07-31T06:17:28;12.27;;;5.18;;
22764;SDS011;11549;50.852;3.816;2023-07-31T06:19:57;12.20;;;5.30;;
22764;SDS011;11549;50.852;3.816;2023-07-31T06:22:25;13.02;;;5.65;;
22764;SDS011;11549;50.852;3.816;2023-07-31T06:24:53;11.73;;;6.00;;
22764;SDS011;11549;50.852;3.816;2023-07-31T06:27:22;8.85;;;5.30;;
22764;SDS011;11549;50.852;3.816;2023-07-31T06:29:50;12.45;;;5.28;;
22764;SDS011;11549;50.852;3.816;2023-07-31T06:32:19;13.73;;;5.65;;
22764;SDS011;11549;50.852;3.816;2023-07-31T06:34:49;14.52;;;5.53;;
22764;SDS011;11549;50.852;3.816;2023-07-31T06:37:17;11.65;;;5.82;;
22764;SDS011;11549;50.852;3.816;2023-07-31T06:39:45;11.02;;;5.20;;
22764;SDS011;11549;50.852;3.816;2023-07-31T06:42:15;12.27;;;5.22;;
22764;SDS011;11549;50.852;3.816;2023-07-31T06:44:43;13.85;;;5.88;;
22764;SDS011;11549;50.852;3.816;2023-07-31T06:47:11;10.73;;;5.00;;
22764;SDS011;11549;50.852;3.816;2023-07-31T06:49:40;11.55;;;4.63;;
22764;SDS011;11549;50.852;3.816;2023-07-31T06:52:10;10.63;;;4.88;;
22764;SDS011;11549;50.852;3.816;2023-07-31T06:54:38;10.63;;;5.30;;
22764;SDS011;11549;50.852;3.816;2023-07-31T06:57:07;9.18;;;5.00;;
22764;SDS011;11549;50.852;3.816;2023-07-31T06:59:35;11.25;;;5.15;;
22764;SDS011;11549;50.852;3.816;2023-07-31T07:02:04;11.18;;;4.97;;
22764;SDS011;11549;50.852;3.816;2023-07-31T07:04:33;9.77;;;4.70;;
22764;SDS011;11549;50.852;3.816;2023-07-31T07:07:02;11.00;;;4.90;;
22764;SDS011;11549;50.852;3.816;2023-07-31T07:09:32;11.13;;;5.07;;
22764;SDS011;11549;50.852;3.816;2023-07-31T07:12:00;9.23;;;5.03;;
22764;SDS011;11549;50.852;3.816;2023-07-31T07:14:28;11.63;;;5.25;;
22764;SDS011;11549;50.852;3.816;2023-07-31T07:16:57;13.32;;;4.93;;
22764;SDS011;11549;50.852;3.816;2023-07-31T07:19:25;9.02;;;4.38;;
22764;SDS011;11549;50.852;3.816;2023-07-31T07:21:53;8.65;;;4.68;;
22764;SDS011;11549;50.852;3.816;2023-07-31T07:24:22;12.57;;;4.97;;
22764;SDS011;11549;50.852;3.816;2023-07-31T07:26:52;10.93;;;4.85;;
22764;SDS011;11549;50.852;3.816;2023-07-31T07:29:21;9.70;;;4.32;;
22764;SDS011;11549;50.852;3.816;2023-07-31T07:31:49;10.45;;;4.90;;
22764;SDS011;11549;50.852;3.816;2023-07-31T07:34:17;8.20;;;4.30;;
22764;SDS011;11549;50.852;3.816;2023-07-31T07:36:46;8.82;;;4.55;;
22764;SDS011;11549;50.852;3.816;2023-07-31T07:39:14;9.93;;;4.85;;
22764;SDS011;11549;50.852;3.816;2023-07-31T07:41:43;12.75;;;4.60;;
22764;SDS011;11549;50.852;3.816;2023-07-31T07:44:13;12.40;;;4.88;;
22764;SDS011;11549;50.852;3.816;2023-07-31T07:46:41;11.30;;;4.95;;
22764;SDS011;11549;50.852;3.816;2023-07-31T07:49:10;10.63;;;4.50;;
22764;SDS011;11549;50.852;3.816;2023-07-31T07:51:38;11.35;;;4.90;;
22764;SDS011;11549;50.852;3.816;2023-07-31T07:54:07;16.85;;;4.78;;
22764;SDS011;11549;50.852;3.816;2023-07-31T07:56:35;12.30;;;4.65;;
22764;SDS011;11549;50.852;3.816;2023-07-31T07:59:05;11.10;;;4.65;;
22764;SDS011;11549;50.852;3.816;2023-07-31T08:01:34;9.55;;;4.32;;
22764;SDS011;11549;50.852;3.816;2023-07-31T08:04:03;11.00;;;4.60;;
22764;SDS011;11549;50.852;3.816;2023-07-31T08:06:31;11.48;;;4.30;;
22764;SDS011;11549;50.852;3.816;2023-07-31T08:09:00;8.95;;;4.20;;
22764;SDS011;11549;50.852;3.816;2023-07-31T08:11:32;7.97;;;4.00;;
22764;SDS011;11549;50.852;3.816;2023-07-31T08:14:00;8.00;;;4.00;;
22764;SDS011;11549;50.852;3.816;2023-07-31T08:16:28;8.30;;;3.78;;
22764;SDS011;11549;50.852;3.816;2023-07-31T08:18:58;8.32;;;3.97;;
22764;SDS011;11549;50.852;3.816;2023-07-31T08:21:27;7.25;;;3.75;;
22764;SDS011;11549;50.852;3.816;2023-07-31T08:23:56;8.00;;;3.92;;
22764;SDS011;11549;50.852;3.816;2023-07-31T08:26:24;9.32;;;4.10;;
22764;SDS011;11549;50.852;3.816;2023-07-31T08:28:53;8.05;;;3.83;;
22764;SDS011;11549;50.852;3.816;2023-07-31T08:31:21;9.35;;;4.20;;
22764;SDS011;11549;50.852;3.816;2023-07-31T08:33:50;8.90;;;4.22;;
22764;SDS011;11549;50.852;3.816;2023-07-31T08:36:19;9.50;;;4.20;;
22764;SDS011;11549;50.852;3.816;2023-07-31T08:38:48;7.47;;;4.18;;
22764;SDS011;11549;50.852;3.816;2023-07-31T08:41:16;9.18;;;4.07;;
22764;SDS011;11549;50.852;3.816;2023-07-31T08:43:45;8.68;;;4.30;;
22764;SDS011;11549;50.852;3.816;2023-07-31T08:46:13;12.35;;;4.82;;
22764;SDS011;11549;50.852;3.816;2023-07-31T08:48:42;8.40;;;4.57;;
22764;SDS011;11549;50.852;3.816;2023-07-31T08:51:13;9.27;;;4.55;;
22764;SDS011;11549;50.852;3.816;2023-07-31T08:53:43;10.50;;;4.55;;
22764;SDS011;11549;50.852;3.816;2023-07-31T08:56:12;8.82;;;4.22;;
22764;SDS011;11549;50.852;3.816;2023-07-31T08:58:43;10.93;;;5.13;;
22764;SDS011;11549;50.852;3.816;2023-07-31T09:01:13;10.85;;;4.93;;
22764;SDS011;11549;50.852;3.816;2023-07-31T09:03:43;8.80;;;4.50;;
22764;SDS011;11549;50.852;3.816;2023-07-31T09:06:13;9.05;;;4.43;;
22764;SDS011;11549;50.852;3.816;2023-07-31T09:08:44;9.75;;;4.70;;
22764;SDS011;11549;50.852;3.816;2023-07-31T09:11:12;8.68;;;4.65;;
22764;SDS011;11549;50.852;3.816;2023-07-31T09:13:41;9.18;;;4.65;;
22764;SDS011;11549;50.852;3.816;2023-07-31T09:16:11;8.68;;;4.57;;
22764;SDS011;11549;50.852;3.816;2023-07-31T09:18:55;10.40;;;4.45;;
22764;SDS011;11549;50.852;3.816;2023-07-31T09:21:25;8.18;;;4.60;;
22764;SDS011;11549;50.852;3.816;2023-07-31T09:23:56;9.25;;;5.22;;
22764;SDS011;11549;50.852;3.816;2023-07-31T09:26:31;6.95;;;4.75;;
22764;SDS011;11549;50.852;3.816;2023-07-31T09:29:01;8.18;;;4.97;;
22764;SDS011;11549;50.852;3.816;2023-07-31T09:31:37;10.07;;;5.75;;
22764;SDS011;11549;50.852;3.816;2023-07-31T09:34:08;11.43;;;6.55;;
22764;SDS011;11549;50.852;3.816;2023-07-31T09:36:39;11.23;;;6.45;;
22764;SDS011;11549;50.852;3.816;2023-07-31T09:39:10;12.65;;;7.05;;
22764;SDS011;11549;50.852;3.816;2023-07-31T09:41:41;11.98;;;6.70;;
22764;SDS011;11549;50.852;3.816;2023-07-31T09:44:10;11.48;;;7.03;;
22764;SDS011;11549;50.852;3.816;2023-07-31T09:46:39;13.52;;;7.07;;
22764;SDS011;11549;50.852;3.816;2023-07-31T09:49:08;12.15;;;7.38;;
22764;SDS011;11549;50.852;3.816;2023-07-31T09:51:38;13.73;;;7.15;;
22764;SDS011;11549;50.852;3.816;2023-07-31T09:54:13;13.95;;;7.03;;
22764;SDS011;11549;50.852;3.816;2023-07-31T09:56:42;12.75;;;7.57;;
22764;SDS011;11549;50.852;3.816;2023-07-31T09:59:12;13.75;;;7.97;;
22764;SDS011;11549;50.852;3.816;2023-07-31T10:01:44;12.00;;;6.95;;
22764;SDS011;11549;50.852;3.816;2023-07-31T10:04:14;12.13;;;7.20;;
22764;SDS011;11549;50.852;3.816;2023-07-31T10:06:43;10.55;;;6.60;;
22764;SDS011;11549;50.852;3.816;2023-07-31T10:09:15;11.75;;;6.90;;
22764;SDS011;11549;50.852;3.816;2023-07-31T10:11:46;12.23;;;6.75;;
22764;SDS011;11549;50.852;3.816;2023-07-31T10:14:22;10.32;;;6.55;;
22764;SDS011;11549;50.852;3.816;2023-07-31T10:16:53;12.18;;;6.50;;
22764;SDS011;11549;50.852;3.816;2023-07-31T10:19:22;12.52;;;7.00;;
22764;SDS011;11549;50.852;3.816;2023-07-31T10:21:51;12.40;;;6.88;;
22764;SDS011;11549;50.852;3.816;2023-07-31T10:24:21;14.07;;;6.35;;
22764;SDS011;11549;50.852;3.816;2023-07-31T10:26:51;15.60;;;6.25;;
22764;SDS011;11549;50.852;3.816;2023-07-31T10:29:20;14.90;;;6.78;;
22764;SDS011;11549;50.852;3.816;2023-07-31T10:31:50;10.80;;;5.95;;
22764;SDS011;11549;50.852;3.816;2023-07-31T10:34:19;14.73;;;6.97;;
22764;SDS011;11549;50.852;3.816;2023-07-31T10:36:48;13.60;;;6.57;;
22764;SDS011;11549;50.852;3.816;2023-07-31T10:39:37;14.27;;;6.53;;
22764;SDS011;11549;50.852;3.816;2023-07-31T10:42:09;10.65;;;5.97;;
22764;SDS011;11549;50.852;3.816;2023-07-31T10:44:43;15.95;;;6.68;;
22764;SDS011;11549;50.852;3.816;2023-07-31T10:47:14;9.25;;;5.70;;
22764;SDS011;11549;50.852;3.816;2023-07-31T10:49:44;11.48;;;6.43;;
22764;SDS011;11549;50.852;3.816;2023-07-31T10:52:14;12.77;;;6.25;;
22764;SDS011;11549;50.852;3.816;2023-07-31T10:57:57;11.07;;;6.20;;
22764;SDS011;11549;50.852;3.816;2023-07-31T11:00:26;12.75;;;6.50;;
22764;SDS011;11549;50.852;3.816;2023-07-31T11:02:56;12.02;;;6.07;;
22764;SDS011;11549;50.852;3.816;2023-07-31T11:05:41;14.10;;;6.82;;
22764;SDS011;11549;50.852;3.816;2023-07-31T11:08:12;14.10;;;6.40;;
22764;SDS011;11549;50.852;3.816;2023-07-31T11:10:43;11.77;;;6.47;;
22764;SDS011;11549;50.852;3.816;2023-07-31T11:13:12;13.35;;;6.90;;
22764;SDS011;11549;50.852;3.816;2023-07-31T11:15:40;12.43;;;6.80;;
22764;SDS011;11549;50.852;3.816;2023-07-31T11:18:09;13.80;;;6.85;;
22764;SDS011;11549;50.852;3.816;2023-07-31T11:20:38;13.82;;;7.03;;
22764;SDS011;11549;50.852;3.816;2023-07-31T11:23:07;12.07;;;6.97;;
22764;SDS011;11549;50.852;3.816;2023-07-31T11:25:37;13.45;;;6.82;;
22764;SDS011;11549;50.852;3.816;2023-07-31T11:28:11;10.13;;;6.97;;
22764;SDS011;11549;50.852;3.816;2023-07-31T11:30:41;11.50;;;6.18;;
22764;SDS011;11549;50.852;3.816;2023-07-31T11:33:12;11.45;;;6.47;;
22764;SDS011;11549;50.852;3.816;2023-07-31T11:38:21;11.45;;;6.30;;
22764;SDS011;11549;50.852;3.816;2023-07-31T11:40:51;13.85;;;6.55;;
22764;SDS011;11549;50.852;3.816;2023-07-31T11:43:21;12.70;;;6.38;;
22764;SDS011;11549;50.852;3.816;2023-07-31T11:45:50;12.57;;;6.80;;
22764;SDS011;11549;50.852;3.816;2023-07-31T11:48:20;11.38;;;5.90;;
22764;SDS011;11549;50.852;3.816;2023-07-31T11:50:50;12.43;;;6.55;;
22764;SDS011;11549;50.852;3.816;2023-07-31T11:53:20;12.70;;;6.35;;
22764;SDS011;11549;50.852;3.816;2023-07-31T11:55:55;9.93;;;5.78;;
22764;SDS011;11549;50.852;3.816;2023-07-31T11:58:27;12.73;;;6.00;;
22764;SDS011;11549;50.852;3.816;2023-07-31T12:00:56;10.32;;;5.82;;
22764;SDS011;11549;50.852;3.816;2023-07-31T12:03:25;13.07;;;6.07;;
22764;SDS011;11549;50.852;3.816;2023-07-31T12:05:54;13.55;;;5.90;;
22764;SDS011;11549;50.852;3.816;2023-07-31T12:08:23;10.50;;;6.10;;
22764;SDS011;11549;50.852;3.816;2023-07-31T12:10:52;11.80;;;5.88;;
22764;SDS011;11549;50.852;3.816;2023-07-31T12:13:22;13.02;;;6.07;;
22764;SDS011;11549;50.852;3.816;2023-07-31T12:15:55;11.85;;;5.97;;
22764;SDS011;11549;50.852;3.816;2023-07-31T12:18:25;10.20;;;6.43;;
22764;SDS011;11549;50.852;3.816;2023-07-31T12:20:55;10.40;;;5.97;;
22764;SDS011;11549;50.852;3.816;2023-07-31T12:23:25;13.75;;;6.20;;
22764;SDS011;11549;50.852;3.816;2023-07-31T12:26:01;13.48;;;6.18;;
22764;SDS011;11549;50.852;3.816;2023-07-31T12:28:34;11.02;;;6.25;;
22764;SDS011;11549;50.852;3.816;2023-07-31T12:31:04;15.40;;;6.70;;
22764;SDS011;11549;50.852;3.816;2023-07-31T12:33:34;12.35;;;5.88;;
22764;SDS011;11549;50.852;3.816;2023-07-31T12:36:04;11.85;;;6.43;;
22764;SDS011;11549;50.852;3.816;2023-07-31T12:38:36;10.13;;;6.00;;
22764;SDS011;11549;50.852;3.816;2023-07-31T12:41:04;9.13;;;6.50;;
22764;SDS011;11549;50.852;3.816;2023-07-31T12:43:33;13.68;;;7.13;;
22764;SDS011;11549;50.852;3.816;2023-07-31T12:46:02;9.30;;;5.60;;
22764;SDS011;11549;50.852;3.816;2023-07-31T12:48:32;8.27;;;4.90;;
22764;SDS011;11549;50.852;3.816;2023-07-31T12:51:00;9.20;;;4.78;;
22764;SDS011;11549;50.852;3.816;2023-07-31T12:53:29;7.60;;;4.30;;
22764;SDS011;11549;50.852;3.816;2023-07-31T12:55:57;9.60;;;4.93;;
22764;SDS011;11549;50.852;3.816;2023-07-31T12:58:26;9.48;;;4.75;;
22764;SDS011;11549;50.852;3.816;2023-07-31T13:00:55;9.32;;;5.00;;
22764;SDS011;11549;50.852;3.816;2023-07-31T13:03:23;10.10;;;4.72;;
22764;SDS011;11549;50.852;3.816;2023-07-31T13:05:53;7.85;;;4.20;;
22764;SDS011;11549;50.852;3.816;2023-07-31T13:08:22;9.60;;;4.53;;
22764;SDS011;11549;50.852;3.816;2023-07-31T13:10:50;7.40;;;4.00;;
22764;SDS011;11549;50.852;3.816;2023-07-31T13:13:18;6.93;;;3.90;;
22764;SDS011;11549;50.852;3.816;2023-07-31T13:15:47;5.80;;;3.20;;
22764;SDS011;11549;50.852;3.816;2023-07-31T13:18:16;7.80;;;3.47;;
22764;SDS011;11549;50.852;3.816;2023-07-31T13:20:44;6.50;;;3.00;;
22764;SDS011;11549;50.852;3.816;2023-07-31T13:23:14;6.15;;;3.10;;
22764;SDS011;11549;50.852;3.816;2023-07-31T13:25:42;7.85;;;3.50;;
22764;SDS011;11549;50.852;3.816;2023-07-31T13:28:11;7.07;;;3.70;;
22764;SDS011;11549;50.852;3.816;2023-07-31T13:30:39;7.35;;;3.70;;
22764;SDS011;11549;50.852;3.816;2023-07-31T13:33:08;8.77;;;4.57;;
22764;SDS011;11549;50.852;3.816;2023-07-31T13:35:55;7.53;;;4.05;;
22764;SDS011;11549;50.852;3.816;2023-07-31T13:38:25;7.38;;;4.10;;
22764;SDS011;11549;50.852;3.816;2023-07-31T13:40:54;9.77;;;4.78;;
22764;SDS011;11549;50.852;3.816;2023-07-31T13:43:23;6.75;;;4.57;;
22764;SDS011;11549;50.852;3.816;2023-07-31T13:45:52;10.52;;;5.18;;
22764;SDS011;11549;50.852;3.816;2023-07-31T13:48:20;9.93;;;4.90;;
22764;SDS011;11549;50.852;3.816;2023-07-31T13:50:48;9.60;;;4.90;;
22764;SDS011;11549;50.852;3.816;2023-07-31T13:53:17;9.90;;;5.03;;
22764;SDS011;11549;50.852;3.816;2023-07-31T13:55:47;10.52;;;5.07;;
22764;SDS011;11549;50.852;3.816;2023-07-31T13:58:15;9.15;;;4.95;;
22764;SDS011;11549;50.852;3.816;2023-07-31T14:00:45;10.13;;;4.85;;
22764;SDS011;11549;50.852;3.816;2023-07-31T14:03:13;9.23;;;4.95;;
22764;SDS011;11549;50.852;3.816;2023-07-31T14:05:41;9.73;;;5.15;;
22764;SDS011;11549;50.852;3.816;2023-07-31T14:08:10;10.82;;;5.47;;
22764;SDS011;11549;50.852;3.816;2023-07-31T14:10:39;8.80;;;4.47;;
22764;SDS011;11549;50.852;3.816;2023-07-31T14:13:09;8.68;;;4.07;;
22764;SDS011;11549;50.852;3.816;2023-07-31T14:15:37;6.13;;;3.50;;
22764;SDS011;11549;50.852;3.816;2023-07-31T14:18:07;7.70;;;4.10;;
22764;SDS011;11549;50.852;3.816;2023-07-31T14:20:35;9.40;;;4.35;;
22764;SDS011;11549;50.852;3.816;2023-07-31T14:23:04;8.70;;;4.10;;
22764;SDS011;11549;50.852;3.816;2023-07-31T14:25:32;6.32;;;3.47;;
22764;SDS011;11549;50.852;3.816;2023-07-31T14:28:00;6.68;;;3.70;;
22764;SDS011;11549;50.852;3.816;2023-07-31T14:30:31;5.80;;;3.10;;
22764;SDS011;11549;50.852;3.816;2023-07-31T14:32:59;5.28;;;2.70;;
22764;SDS011;11549;50.852;3.816;2023-07-31T14:35:29;5.13;;;2.97;;
22764;SDS011;11549;50.852;3.816;2023-07-31T14:37:57;6.05;;;2.92;;
22764;SDS011;11549;50.852;3.816;2023-07-31T14:40:25;4.30;;;2.80;;
22764;SDS011;11549;50.852;3.816;2023-07-31T14:42:54;6.70;;;2.75;;
22764;SDS011;11549;50.852;3.816;2023-07-31T14:45:22;4.55;;;2.42;;
22764;SDS011;11549;50.852;3.816;2023-07-31T14:47:52;3.45;;;2.15;;
22764;SDS011;11549;50.852;3.816;2023-07-31T14:50:20;4.95;;;2.58;;
22764;SDS011;11549;50.852;3.816;2023-07-31T14:52:50;3.75;;;2.17;;
22764;SDS011;11549;50.852;3.816;2023-07-31T14:55:18;4.72;;;2.20;;
22764;SDS011;11549;50.852;3.816;2023-07-31T14:57:46;3.90;;;2.20;;